New Caney, Texas
Current Conditions -  °F | °C
As of 6:53 PM on Tuesday 21 Oct 2014 (Local Time) from KIAH Reporting Station
Few Clouds Few Clouds  
Wind Chill: 75°   Ceiling: Unl
Heat Index: 75°   Visibility: 10mi
Dew Point: 59°   Wind: 7mph
Humidity: 57%   Direction: 50°NE
Pressure: 29.99"   Gusts: NA
Location:  30.16°N, 95.21°W
Report Text: KIAH 212353Z 05006KT 10SM FEW250 24/15 A2999 RMK AO2 SLP156 T02390150 10278 20233 53001
Loading
Personal Weather Stations






























Interactive Weather Map
Tropical Storm Tracking
New forecast layout! Learn more

10-Day Weather Forecast

Advertisements
Track Severe Weather on mobile